createdAt,value
2023-03-20T00:00:07.047Z,35.19544
2023-03-20T00:05:08.769Z,34.12303
2023-03-20T00:10:10.561Z,32.27496
2023-03-20T00:15:12.277Z,33.10214
2023-03-20T00:20:13.921Z,32.59906
2023-03-20T00:25:15.550Z,33.27555
2023-03-20T00:30:17.193Z,33.69501
2023-03-20T00:35:18.851Z,34.20641
2023-03-20T00:40:20.486Z,35.6873
2023-03-20T00:45:22.130Z,35.51094
2023-03-20T00:50:23.762Z,34.05065
2023-03-20T00:55:25.462Z,36.63737
2023-03-20T01:00:27.146Z,35.58328
2023-03-20T01:05:28.898Z,36.00249
2023-03-20T01:10:30.559Z,37.77856
2023-03-20T01:15:32.216Z,39.47793
2023-03-20T01:20:33.814Z,38.8015
2023-03-20T01:25:35.680Z,39.57387
2023-03-20T01:30:37.530Z,40.73947
2023-03-20T01:35:39.207Z,42.65032
2023-03-20T01:40:40.841Z,41.82829
2023-03-20T01:45:42.529Z,46.49284
2023-03-20T01:50:44.540Z,45.73084
2023-03-20T01:55:46.171Z,44.78991
2023-03-20T02:00:47.903Z,46.6787
2023-03-20T02:05:49.522Z,44.88436
2023-03-20T02:10:51.242Z,45.27812
2023-03-20T02:15:52.960Z,44.02648
2023-03-20T02:20:54.638Z,47.7281
2023-03-20T02:25:56.436Z,49.17681
2023-03-20T02:30:58.079Z,51.56733
2023-03-20T02:35:59.805Z,49.70117
2023-03-20T02:41:01.486Z,49.35686
2023-03-20T02:46:03.213Z,51.18508
2023-03-20T02:51:04.887Z,48.31977
2023-03-20T02:56:06.608Z,48.80479
2023-03-20T03:01:08.307Z,47.62465
2023-03-20T03:06:09.965Z,47.0769
2023-03-20T03:11:11.638Z,50.62097
2023-03-20T03:16:13.292Z,48.2019
2023-03-20T03:21:14.925Z,48.81976
2023-03-20T03:26:16.552Z,49.84598
2023-03-20T03:31:18.330Z,49.67513
2023-03-20T03:36:20.018Z,49.88852
2023-03-20T03:41:21.660Z,52.23072
2023-03-20T03:46:23.380Z,51.53399
2023-03-20T03:51:25.102Z,49.56549
2023-03-20T03:56:26.725Z,50.85835
2023-03-20T04:01:28.450Z,50.62454
2023-03-20T04:06:30.296Z,49.5771
2023-03-20T04:11:32.007Z,52.18635
2023-03-20T04:16:33.752Z,52.67686
2023-03-20T04:21:35.466Z,53.07757
2023-03-20T04:26:37.065Z,51.33479
2023-03-20T04:31:38.691Z,51.14696
2023-03-20T04:36:40.658Z,51.45512
2023-03-20T04:41:42.537Z,50.98624
2023-03-20T04:46:44.290Z,51.80739
2023-03-20T04:51:45.911Z,53.08387
2023-03-20T04:56:47.544Z,53.74133
2023-03-20T05:01:49.233Z,52.0139
2023-03-20T05:06:50.964Z,52.8899
2023-03-20T05:11:52.634Z,53.52248
2023-03-20T05:16:54.462Z,53.84045
2023-03-20T05:21:56.097Z,53.66716
2023-03-20T05:26:57.726Z,54.48404
2023-03-20T05:31:59.512Z,55.82386
2023-03-20T05:37:01.173Z,54.41965
2023-03-20T05:42:02.824Z,53.9401
2023-03-20T05:47:04.499Z,56.25067
2023-03-20T05:52:06.097Z,56.80899
2023-03-20T05:57:07.831Z,52.38789
2023-03-20T06:02:09.552Z,53.69385
2023-03-20T06:07:11.248Z,53.5706
2023-03-20T06:12:12.892Z,55.30718
2023-03-20T06:17:14.740Z,55.7125
2023-03-20T06:22:16.362Z,58.96021
2023-03-20T06:27:18.102Z,55.9529
2023-03-20T06:32:19.700Z,53.29591
2023-03-20T06:37:21.347Z,56.68651
2023-03-20T06:42:22.968Z,55.92506
2023-03-20T06:47:24.569Z,57.4797
2023-03-20T06:52:26.237Z,56.49962
2023-03-20T06:57:28.154Z,54.02979
2023-03-20T07:02:29.863Z,56.99772
2023-03-20T07:07:31.496Z,57.71697
2023-03-20T07:12:33.129Z,58.3996
2023-03-20T07:17:34.783Z,57.83573
2023-03-20T07:22:36.529Z,58.82211
2023-03-20T07:27:38.228Z,59.84488
2023-03-20T07:32:39.897Z,58.73066
2023-03-20T07:37:41.768Z,55.87936
2023-03-20T07:42:43.422Z,56.41309
2023-03-20T07:47:45.129Z,58.69782
2023-03-20T07:52:46.760Z,54.60509
2023-03-20T07:57:48.452Z,58.02438
2023-03-20T08:02:50.191Z,58.62164
2023-03-20T08:07:51.984Z,57.44979
2023-03-20T08:12:53.970Z,60.39006
2023-03-20T08:17:55.681Z,59.07223
2023-03-20T08:22:57.508Z,59.588
2023-03-20T08:27:59.171Z,60.32072
2023-03-20T08:33:00.853Z,61.4901
2023-03-20T08:38:02.532Z,63.00929
2023-03-20T08:43:04.154Z,60.4488
2023-03-20T08:48:05.820Z,59.87618
2023-03-20T08:53:07.447Z,60.80821
2023-03-20T08:58:09.096Z,60.22979
2023-03-20T09:03:10.867Z,63.62346
2023-03-20T09:08:12.625Z,62.59427
2023-03-20T09:13:26.681Z,61.70542
2023-03-20T09:18:28.951Z,59.8062
2023-03-20T09:23:30.594Z,61.54356
2023-03-20T09:28:32.391Z,60.30597
2023-03-20T09:33:34.073Z,59.87763
2023-03-20T09:38:35.722Z,62.27422
2023-03-20T09:43:37.398Z,61.86289
2023-03-20T09:48:38.998Z,60.1913
2023-03-20T09:53:40.619Z,61.47693
2023-03-20T09:58:42.277Z,61.25653
2023-03-20T10:03:43.941Z,61.70624
2023-03-20T10:08:45.653Z,62.02205
2023-03-20T10:13:47.307Z,63.52994
2023-03-20T10:18:48.990Z,63.07535
2023-03-20T10:23:50.604Z,64.20816
2023-03-20T10:28:52.210Z,64.06519
2023-03-20T10:33:53.864Z,63.10546
2023-03-20T10:38:55.672Z,62.64195
2023-03-20T10:43:57.294Z,64.16247
2023-03-20T10:48:58.999Z,63.15441
2023-03-20T10:54:00.610Z,62.64347
2023-03-20T10:59:02.244Z,63.14361
2023-03-20T11:04:03.955Z,63.38377
2023-03-20T11:09:05.605Z,62.3956
2023-03-20T11:14:07.433Z,61.54626
2023-03-20T11:19:09.288Z,62.46967
2023-03-20T11:24:11.707Z,62.13563
2023-03-20T11:29:13.390Z,61.77757
2023-03-20T11:34:15.025Z,64.17338
2023-03-20T11:39:16.628Z,63.37624
2023-03-20T11:44:18.277Z,63.8183
2023-03-20T11:49:19.869Z,63.50364
2023-03-20T11:54:21.509Z,63.09786
2023-03-20T11:59:23.147Z,61.65448
2023-03-20T12:04:24.753Z,63.60536
2023-03-20T12:09:26.632Z,63.02583
2023-03-20T12:14:28.326Z,63.8688
2023-03-20T12:19:29.922Z,63.50081
2023-03-20T12:24:31.547Z,64.44804
2023-03-20T12:29:33.413Z,65.27017
2023-03-20T12:34:35.147Z,66.7027
2023-03-20T12:39:36.866Z,64.65017
2023-03-20T12:44:38.642Z,64.59834
2023-03-20T12:49:40.661Z,65.28038
2023-03-20T12:54:42.243Z,64.0785
2023-03-20T12:59:43.926Z,64.6276
2023-03-20T13:04:45.605Z,64.71865
2023-03-20T13:09:47.216Z,64.55177
2023-03-20T13:14:49.004Z,65.3579
2023-03-20T13:19:50.623Z,67.97589
2023-03-20T13:24:52.255Z,65.36782
2023-03-20T13:29:54.970Z,64.79504
2023-03-20T13:34:56.779Z,65.26808
2023-03-20T13:39:58.362Z,64.6825
2023-03-20T13:45:00.108Z,63.7984
2023-03-20T13:50:01.904Z,63.34482
2023-03-20T13:55:03.643Z,62.67646
2023-03-20T14:00:05.313Z,64.80975
2023-03-20T14:05:06.970Z,62.37111
2023-03-20T14:10:08.834Z,63.0779
2023-03-20T14:15:10.483Z,63.22082
2023-03-20T14:20:12.076Z,63.09438
2023-03-20T14:25:13.694Z,63.05885
2023-03-20T14:30:15.372Z,65.1833
2023-03-20T14:35:16.999Z,64.50593
2023-03-20T14:40:18.597Z,62.54377
2023-03-20T14:45:20.242Z,63.38586
2023-03-20T14:50:21.828Z,66.18745
2023-03-20T14:55:23.494Z,62.96495
2023-03-20T15:00:25.147Z,62.1748
2023-03-20T15:05:26.783Z,61.71263
2023-03-20T15:10:28.439Z,61.74559
2023-03-20T15:15:30.047Z,61.89195
2023-03-20T15:20:31.896Z,62.82547
2023-03-20T15:25:33.519Z,63.91635
2023-03-20T15:30:35.494Z,63.12529
2023-03-20T15:35:37.320Z,62.56998
2023-03-20T15:40:50.106Z,62.34267
2023-03-20T15:45:57.622Z,62.58339
2023-03-20T15:51:04.952Z,61.61689
2023-03-20T15:56:17.185Z,60.98248
2023-03-20T16:01:19.679Z,60.85905
2023-03-20T16:06:21.475Z,59.96584
2023-03-20T16:11:23.133Z,58.07595
2023-03-20T16:16:24.911Z,57.14866
2023-03-20T16:21:26.740Z,55.66728
2023-03-20T16:26:28.356Z,56.10697
2023-03-20T16:31:30.089Z,55.24871
2023-03-20T16:36:31.816Z,54.69378
2023-03-20T16:41:33.539Z,55.64521
2023-03-20T16:46:35.194Z,56.38486
2023-03-20T16:51:36.956Z,56.15845
2023-03-20T16:56:38.762Z,53.89436
2023-03-20T17:01:40.482Z,54.35555
2023-03-20T17:06:42.147Z,53.40925
2023-03-20T17:11:43.771Z,53.83349
2023-03-20T17:16:45.510Z,53.96527
2023-03-20T17:21:47.202Z,53.19098
2023-03-20T17:26:49.017Z,50.64231
2023-03-20T17:31:50.708Z,50.85661
2023-03-20T17:36:52.346Z,50.45183
2023-03-20T17:41:54.017Z,49.75635
2023-03-20T17:46:58.898Z,49.82818
2023-03-20T17:52:01.594Z,49.17816
2023-03-20T17:57:03.357Z,48.30993
2023-03-20T18:02:05.085Z,47.9598
2023-03-20T18:07:06.680Z,47.22781
2023-03-20T18:12:08.292Z,47.19885
2023-03-20T18:17:09.907Z,46.55398
2023-03-20T18:22:11.515Z,48.99811
2023-03-20T18:27:13.161Z,48.30434
2023-03-20T18:32:14.771Z,48.0478
2023-03-20T18:37:16.406Z,46.36969
2023-03-20T18:42:18.043Z,46.57861
2023-03-20T18:47:19.627Z,43.65148
2023-03-20T18:52:21.261Z,42.9128
2023-03-20T18:57:22.956Z,41.25996
2023-03-20T19:02:24.750Z,41.05988
2023-03-20T19:07:26.384Z,40.71358
2023-03-20T19:12:27.973Z,41.26083
2023-03-20T19:17:29.670Z,39.84166
2023-03-20T19:22:31.326Z,41.95365
2023-03-20T19:27:32.974Z,41.27611
2023-03-20T19:32:34.617Z,41.17666
2023-03-20T19:37:36.246Z,41.34625
2023-03-20T19:42:58.879Z,39.16664
2023-03-20T19:48:03.281Z,39.43377
2023-03-20T19:53:04.953Z,37.93282
2023-03-20T19:58:06.555Z,37.87049
2023-03-20T20:03:08.243Z,37.87008
2023-03-20T20:08:24.335Z,36.90065
2023-03-20T20:13:29.973Z,38.17497
2023-03-20T20:18:31.635Z,37.73896
2023-03-20T20:23:33.540Z,36.18166
2023-03-20T20:28:35.214Z,35.88275
2023-03-20T20:33:37.066Z,34.56355
2023-03-20T20:38:50.482Z,34.52044
2023-03-20T20:44:15.099Z,35.56488
2023-03-20T20:49:19.894Z,34.34439
2023-03-20T20:54:21.838Z,34.52426
2023-03-20T20:59:23.467Z,32.80514
2023-03-20T21:04:25.134Z,33.4488
2023-03-20T21:09:26.728Z,33.02947
2023-03-20T21:14:28.348Z,33.60286
2023-03-20T21:19:30.011Z,33.15927
2023-03-20T21:24:33.626Z,32.37879
2023-03-20T21:29:36.146Z,34.77758
2023-03-20T21:34:37.711Z,37.87094
2023-03-20T21:39:39.366Z,37.36392
2023-03-20T21:45:59.902Z,37.84872
2023-03-20T21:52:14.555Z,32.79825
2023-03-20T21:58:36.648Z,33.74769
2023-03-20T22:04:45.009Z,33.11923
2023-03-20T22:16:11.579Z,34.12912
2023-03-20T22:22:08.309Z,33.24703
2023-03-20T22:28:00.881Z,32.84666
2023-03-20T22:33:58.713Z,32.09588
2023-03-20T22:40:14.331Z,31.90108
2023-03-20T22:45:34.430Z,32.67115
2023-03-20T22:50:43.808Z,32.64638
2023-03-20T22:55:45.616Z,32.17871
2023-03-20T23:00:47.363Z,32.47527
2023-03-20T23:05:49.066Z,33.32861
2023-03-20T23:10:50.668Z,32.91355
2023-03-20T23:15:52.536Z,30.7667
2023-03-20T23:20:54.323Z,31.14413
2023-03-20T23:25:55.918Z,30.81094
2023-03-20T23:31:09.686Z,30.87865
2023-03-20T23:36:24.817Z,30.97816
2023-03-20T23:46:51.327Z,32.16577
2023-03-20T23:51:52.976Z,32.03315
2023-03-20T23:56:54.629Z,30.23841
